createdAt,value
2022-11-08T00:00:01.799Z,5.40
2022-11-08T00:02:28.681Z,5.30
2022-11-08T00:04:55.483Z,5.20
2022-11-08T00:07:40.605Z,5.10
2022-11-08T00:10:26.200Z,5.00
2022-11-08T00:13:11.545Z,4.80
2022-11-08T00:15:41.283Z,4.80
2022-11-08T00:18:08.460Z,4.90
2022-11-08T00:20:35.294Z,4.90
2022-11-08T00:23:02.050Z,4.90
2022-11-08T00:25:28.864Z,4.90
2022-11-08T00:27:55.596Z,4.90
2022-11-08T00:30:22.301Z,4.90
2022-11-08T00:32:48.966Z,4.50
2022-11-08T00:35:15.873Z,4.80
2022-11-08T00:37:42.780Z,4.90
2022-11-08T00:40:10.140Z,4.80
2022-11-08T00:42:36.828Z,4.80
2022-11-08T00:45:03.801Z,4.80
2022-11-08T00:47:30.507Z,4.80
2022-11-08T00:49:57.186Z,4.70
2022-11-08T00:52:23.860Z,4.80
2022-11-08T00:54:50.559Z,4.80
2022-11-08T00:57:17.196Z,4.70
2022-11-08T00:59:43.871Z,4.70
2022-11-08T01:02:10.602Z,4.60
2022-11-08T01:04:37.315Z,4.60
2022-11-08T01:07:04.013Z,4.60
2022-11-08T01:09:30.694Z,4.60
2022-11-08T01:11:57.353Z,4.60
2022-11-08T01:14:24.112Z,4.60
2022-11-08T01:16:50.777Z,4.50
2022-11-08T01:19:17.570Z,4.50
2022-11-08T01:21:44.244Z,4.40
2022-11-08T01:24:10.939Z,4.30
2022-11-08T01:26:37.682Z,4.50
2022-11-08T01:29:04.436Z,4.50
2022-11-08T01:31:32.316Z,4.50
2022-11-08T01:33:59.842Z,4.50
2022-11-08T01:36:28.075Z,4.40
2022-11-08T01:38:55.179Z,4.50
2022-11-08T01:41:24.773Z,4.50
2022-11-08T01:43:56.716Z,4.50
2022-11-08T01:46:36.951Z,4.50
2022-11-08T01:49:31.302Z,4.50
2022-11-08T01:52:02.319Z,4.60
2022-11-08T01:54:50.859Z,4.80
2022-11-08T01:57:22.380Z,4.90
2022-11-08T01:59:51.228Z,5.00
2022-11-08T02:02:19.650Z,5.00
2022-11-08T02:04:47.281Z,5.00
2022-11-08T02:07:15.196Z,4.90
2022-11-08T02:09:44.621Z,4.80
2022-11-08T02:12:13.560Z,4.90
2022-11-08T02:14:40.251Z,4.90
2022-11-08T02:17:07.857Z,4.80
2022-11-08T02:19:39.420Z,4.70
2022-11-08T02:22:14.514Z,4.70
2022-11-08T02:24:41.175Z,4.60
2022-11-08T02:27:08.236Z,4.50
2022-11-08T02:29:36.155Z,4.50
2022-11-08T02:32:04.451Z,4.50
2022-11-08T02:34:36.366Z,4.40
2022-11-08T02:37:04.145Z,4.40
2022-11-08T02:39:33.019Z,4.50
2022-11-08T02:42:01.065Z,4.50
2022-11-08T02:44:27.749Z,4.70
2022-11-08T02:46:54.475Z,4.50
2022-11-08T02:49:21.167Z,4.50
2022-11-08T02:51:47.999Z,4.40
2022-11-08T02:54:15.081Z,4.50
2022-11-08T02:56:41.764Z,4.40
2022-11-08T02:59:08.425Z,4.70
2022-11-08T03:01:36.277Z,4.80
2022-11-08T03:04:03.084Z,4.50
2022-11-08T03:06:30.213Z,4.50
2022-11-08T03:08:56.883Z,4.50
2022-11-08T03:11:23.545Z,4.60
2022-11-08T03:13:50.278Z,4.60
2022-11-08T03:16:17.077Z,4.60
2022-11-08T03:18:44.121Z,4.70
2022-11-08T03:21:11.017Z,4.60
2022-11-08T03:23:37.728Z,4.70
2022-11-08T03:26:05.353Z,4.70
2022-11-08T03:28:32.395Z,4.50
2022-11-08T03:30:59.054Z,4.50
2022-11-08T03:33:25.831Z,4.40
2022-11-08T03:35:53.238Z,4.30
2022-11-08T03:38:20.330Z,4.30
2022-11-08T03:40:47.523Z,4.40
2022-11-08T03:43:14.671Z,4.40
2022-11-08T03:45:41.584Z,4.20
2022-11-08T03:48:08.255Z,4.10
2022-11-08T03:50:37.968Z,4.10
2022-11-08T03:53:04.907Z,4.10
2022-11-08T03:55:31.790Z,4.20
2022-11-08T03:57:58.633Z,4.20
2022-11-08T04:00:27.737Z,4.30
2022-11-08T04:02:59.961Z,4.40
2022-11-08T04:05:26.810Z,4.20
2022-11-08T04:07:53.475Z,4.10
2022-11-08T04:10:20.209Z,4.10
2022-11-08T04:13:07.168Z,4.00
2022-11-08T04:15:33.823Z,3.80
2022-11-08T04:18:19.174Z,4.00
2022-11-08T04:21:06.221Z,3.90
2022-11-08T04:23:35.088Z,3.90
2022-11-08T04:26:04.174Z,3.80
2022-11-08T04:28:34.068Z,3.80
2022-11-08T04:31:07.032Z,3.90
2022-11-08T04:33:34.122Z,4.00
2022-11-08T04:36:03.173Z,4.10
2022-11-08T04:38:30.799Z,4.10
2022-11-08T04:41:10.447Z,3.90
2022-11-08T04:43:37.225Z,3.90
2022-11-08T04:46:06.667Z,4.00
2022-11-08T04:48:33.472Z,3.70
2022-11-08T04:51:10.012Z,3.50
2022-11-08T04:53:36.937Z,3.70
2022-11-08T04:56:06.085Z,3.70
2022-11-08T04:58:34.329Z,3.70
2022-11-08T05:01:02.643Z,3.60
2022-11-08T05:03:30.331Z,3.60
2022-11-08T05:06:11.265Z,3.70
2022-11-08T05:08:38.559Z,3.80
2022-11-08T05:11:10.858Z,3.70
2022-11-08T05:13:37.826Z,3.80
2022-11-08T05:16:07.454Z,3.80
2022-11-08T05:18:35.117Z,3.70
2022-11-08T05:21:21.239Z,3.70
2022-11-08T05:23:49.649Z,3.80
2022-11-08T05:26:17.857Z,3.90
2022-11-08T05:28:44.834Z,4.00
2022-11-08T05:31:11.883Z,3.90
2022-11-08T05:33:38.858Z,3.80
2022-11-08T05:36:08.765Z,3.70
2022-11-08T05:38:35.531Z,3.70
2022-11-08T05:41:18.208Z,3.70
2022-11-08T05:43:50.027Z,3.70
2022-11-08T05:46:18.586Z,3.70
2022-11-08T05:48:46.869Z,3.70
2022-11-08T05:51:14.838Z,3.70
2022-11-08T05:53:41.556Z,3.70
2022-11-08T05:56:09.055Z,3.70
2022-11-08T05:58:36.690Z,3.60
2022-11-08T06:01:06.652Z,3.60
2022-11-08T06:03:33.908Z,3.70
2022-11-08T06:06:05.627Z,3.40
2022-11-08T06:08:32.538Z,3.50
2022-11-08T06:11:21.570Z,3.60
2022-11-08T06:13:48.618Z,3.40
2022-11-08T06:16:16.757Z,3.60
2022-11-08T06:18:44.431Z,3.80
2022-11-08T06:21:13.557Z,3.80
2022-11-08T06:23:40.908Z,3.60
2022-11-08T06:26:08.073Z,3.60
2022-11-08T06:28:35.701Z,3.70
2022-11-08T06:31:03.930Z,3.60
2022-11-08T06:33:31.125Z,3.50
2022-11-08T06:35:58.179Z,3.60
2022-11-08T06:38:25.144Z,3.70
2022-11-08T06:40:51.857Z,3.80
2022-11-08T06:43:20.190Z,3.60
2022-11-08T06:45:47.285Z,3.90
2022-11-08T06:48:14.033Z,3.90
2022-11-08T06:50:42.317Z,3.80
2022-11-08T06:53:12.077Z,3.60
2022-11-08T06:55:38.797Z,3.70
2022-11-08T06:58:05.826Z,3.80
2022-11-08T07:00:32.669Z,3.80
2022-11-08T07:03:01.361Z,3.80
2022-11-08T07:05:29.231Z,3.90
2022-11-08T07:07:59.893Z,3.90
2022-11-08T07:10:28.759Z,4.00
2022-11-08T07:13:04.146Z,3.90
2022-11-08T07:15:32.144Z,3.70
2022-11-08T07:18:08.179Z,3.40
2022-11-08T07:20:35.602Z,3.60
2022-11-08T07:23:02.397Z,3.30
2022-11-08T07:25:30.142Z,3.70
2022-11-08T07:27:58.214Z,3.80
2022-11-08T07:30:25.840Z,3.70
2022-11-08T07:32:53.045Z,3.70
2022-11-08T07:35:19.817Z,4.00
2022-11-08T07:37:46.475Z,4.10
2022-11-08T07:40:14.037Z,4.20
2022-11-08T07:43:09.651Z,4.30
2022-11-08T07:45:28.434Z,4.40
2022-11-08T07:48:11.188Z,4.10
2022-11-08T07:50:40.179Z,4.30
2022-11-08T07:53:07.122Z,4.40
2022-11-08T07:55:37.305Z,4.50
2022-11-08T07:58:04.401Z,4.60
2022-11-08T08:00:32.188Z,4.50
2022-11-08T08:03:00.877Z,4.60
2022-11-08T08:05:29.806Z,4.50
2022-11-08T08:07:57.975Z,4.50
2022-11-08T08:10:25.488Z,4.70
2022-11-08T08:12:52.162Z,4.60
2022-11-08T08:15:19.254Z,4.60
2022-11-08T08:17:46.026Z,4.80
2022-11-08T08:20:13.555Z,5.10
2022-11-08T08:22:44.887Z,5.30
2022-11-08T08:25:11.919Z,5.40
2022-11-08T08:27:38.773Z,5.40
2022-11-08T08:30:06.305Z,5.60
2022-11-08T08:32:33.214Z,5.80
2022-11-08T08:34:59.936Z,6.00
2022-11-08T08:37:26.618Z,5.90
2022-11-08T08:39:53.294Z,5.90
2022-11-08T08:42:20.010Z,6.00
2022-11-08T08:44:46.702Z,6.10
2022-11-08T08:47:13.422Z,7.40
2022-11-08T08:49:40.132Z,8.10
2022-11-08T08:52:07.069Z,7.60
2022-11-08T08:54:33.832Z,7.90
2022-11-08T08:57:00.603Z,7.60
2022-11-08T09:02:15.866Z,7.80
2022-11-08T09:04:42.758Z,8.00
2022-11-08T09:07:09.524Z,8.10
2022-11-08T09:09:36.502Z,8.10
2022-11-08T09:12:03.612Z,8.30
2022-11-08T09:14:30.391Z,8.50
2022-11-08T09:16:57.294Z,9.10
2022-11-08T09:19:24.260Z,8.70
2022-11-08T09:21:51.148Z,8.70
2022-11-08T09:24:18.427Z,8.80
2022-11-08T09:26:45.155Z,9.50
2022-11-08T09:29:11.849Z,9.40
2022-11-08T09:31:38.696Z,9.00
2022-11-08T09:34:05.414Z,9.50
2022-11-08T09:36:32.686Z,9.20
2022-11-08T09:38:59.441Z,9.80
2022-11-08T09:41:56.806Z,9.70
2022-11-08T09:44:44.863Z,9.80
2022-11-08T09:47:19.207Z,10.00
2022-11-08T09:49:53.561Z,10.10
2022-11-08T09:52:26.211Z,10.00
2022-11-08T09:55:04.759Z,10.30
2022-11-08T09:58:01.288Z,9.70
2022-11-08T10:00:28.928Z,9.90
2022-11-08T10:02:57.303Z,9.90
2022-11-08T10:05:28.243Z,10.10
2022-11-08T10:08:06.257Z,10.90
2022-11-08T10:10:36.038Z,10.10
2022-11-08T10:13:30.887Z,10.00
2022-11-08T10:16:24.571Z,10.20
2022-11-08T10:19:21.593Z,10.30
2022-11-08T10:21:59.476Z,10.50
2022-11-08T10:24:36.760Z,10.50
2022-11-08T10:27:10.746Z,10.50
2022-11-08T10:29:43.374Z,10.50
2022-11-08T10:32:22.839Z,10.40
2022-11-08T10:35:02.501Z,10.40
2022-11-08T10:37:32.407Z,10.50
2022-11-08T10:40:14.256Z,10.30
2022-11-08T10:42:47.246Z,10.60
2022-11-08T10:45:14.009Z,10.70
2022-11-08T10:47:41.295Z,10.70
2022-11-08T10:50:19.188Z,10.90
2022-11-08T10:53:01.830Z,11.00
2022-11-08T10:55:40.423Z,10.90
2022-11-08T10:58:39.408Z,11.40
2022-11-08T11:01:16.222Z,11.20
2022-11-08T11:03:44.058Z,11.40
2022-11-08T11:06:32.540Z,11.70
2022-11-08T11:09:04.982Z,12.10
2022-11-08T11:11:31.639Z,12.40
2022-11-08T11:14:22.550Z,12.50
2022-11-08T11:17:17.625Z,12.60
2022-11-08T11:19:53.077Z,12.60
2022-11-08T11:22:32.336Z,12.90
2022-11-08T11:25:07.504Z,13.10
2022-11-08T11:27:37.441Z,13.20
2022-11-08T11:30:24.780Z,13.40
2022-11-08T11:33:21.625Z,13.50
2022-11-08T11:35:55.717Z,13.40
2022-11-08T11:38:34.309Z,13.20
2022-11-08T11:41:10.806Z,13.30
2022-11-08T11:44:00.909Z,13.30
2022-11-08T11:46:41.602Z,13.20
2022-11-08T11:49:16.849Z,13.40
2022-11-08T11:51:43.860Z,13.60
2022-11-08T11:54:14.702Z,13.80
2022-11-08T11:57:20.999Z,13.50
2022-11-08T12:00:09.992Z,13.60
2022-11-08T12:03:05.534Z,13.60
2022-11-08T12:05:35.950Z,13.70
2022-11-08T12:08:06.191Z,13.90
2022-11-08T12:10:50.724Z,14.00
2022-11-08T12:13:54.469Z,14.00
2022-11-08T12:16:31.990Z,14.30
2022-11-08T12:19:20.091Z,14.40
2022-11-08T12:21:55.787Z,14.20
2022-11-08T12:24:45.888Z,14.10
2022-11-08T12:27:23.691Z,14.00
2022-11-08T12:30:04.327Z,13.80
2022-11-08T12:32:45.684Z,13.70
2022-11-08T12:35:33.398Z,13.60
2022-11-08T12:38:09.051Z,13.80
2022-11-08T12:40:42.989Z,13.60
2022-11-08T12:43:28.053Z,13.60
2022-11-08T12:46:18.321Z,13.40
2022-11-08T12:49:15.895Z,13.20
2022-11-08T12:51:56.446Z,13.30
2022-11-08T12:54:39.091Z,13.30
2022-11-08T12:57:16.454Z,13.30
2022-11-08T12:59:56.456Z,13.30
2022-11-08T13:02:27.725Z,13.40
2022-11-08T13:05:18.472Z,13.40
2022-11-08T13:08:01.607Z,13.30
2022-11-08T13:10:56.335Z,13.40
2022-11-08T13:13:27.099Z,13.50
2022-11-08T13:16:18.102Z,13.70
2022-11-08T13:18:59.020Z,14.00
2022-11-08T13:21:28.865Z,14.10
2022-11-08T13:24:43.375Z,13.90
2022-11-08T13:27:30.631Z,14.30
2022-11-08T13:30:03.400Z,14.80
2022-11-08T13:32:54.683Z,15.30
2022-11-08T13:35:59.626Z,15.70
2022-11-08T13:38:57.928Z,15.60
2022-11-08T13:41:25.853Z,14.80
2022-11-08T13:43:56.467Z,14.40
2022-11-08T13:46:25.686Z,14.30
2022-11-08T13:48:58.712Z,14.50
2022-11-08T13:51:39.463Z,15.00
2022-11-08T13:54:21.595Z,15.40
2022-11-08T13:56:48.333Z,15.10
2022-11-08T13:59:30.614Z,14.60
2022-11-08T14:02:05.517Z,14.20
2022-11-08T14:04:36.899Z,14.00
2022-11-08T14:07:13.213Z,14.30
2022-11-08T14:09:57.184Z,13.60
2022-11-08T14:12:47.427Z,13.50
2022-11-08T14:15:33.518Z,13.30
2022-11-08T14:18:23.595Z,13.30
2022-11-08T14:20:50.819Z,13.20
2022-11-08T14:23:20.882Z,13.40
2022-11-08T14:26:00.446Z,13.50
2022-11-08T14:28:59.561Z,13.40
2022-11-08T14:31:27.577Z,13.40
2022-11-08T14:33:55.426Z,13.40
2022-11-08T14:36:24.080Z,13.40
2022-11-08T14:39:12.096Z,13.70
2022-11-08T14:41:39.487Z,13.20
2022-11-08T14:44:12.404Z,13.30
2022-11-08T14:46:40.184Z,13.40
2022-11-08T14:49:19.088Z,13.40
2022-11-08T14:51:46.707Z,13.40
2022-11-08T14:54:22.276Z,13.70
2022-11-08T14:56:50.361Z,13.10
2022-11-08T14:59:17.604Z,13.00
2022-11-08T15:01:47.816Z,12.90
2022-11-08T15:04:18.284Z,13.10
2022-11-08T15:06:54.505Z,12.50
2022-11-08T15:09:26.445Z,12.50
2022-11-08T15:11:56.460Z,12.50
2022-11-08T15:14:28.935Z,12.50
2022-11-08T15:17:02.525Z,12.10
2022-11-08T15:19:46.726Z,12.00
2022-11-08T15:22:26.471Z,12.10
2022-11-08T15:25:20.339Z,12.00
2022-11-08T15:27:48.282Z,11.90
2022-11-08T15:30:22.379Z,11.90
2022-11-08T15:32:50.094Z,11.70
2022-11-08T15:35:36.598Z,11.60
2022-11-08T15:38:26.722Z,11.50
2022-11-08T15:41:03.695Z,11.30
2022-11-08T15:43:35.551Z,11.20
2022-11-08T15:46:04.091Z,11.30
2022-11-08T15:48:31.851Z,10.80
2022-11-08T15:50:58.893Z,11.60
2022-11-08T15:53:27.100Z,10.50
2022-11-08T15:56:02.993Z,11.40
2022-11-08T15:58:33.669Z,10.30
2022-11-08T16:01:01.972Z,10.80
2022-11-08T16:03:29.158Z,10.00
2022-11-08T16:05:56.580Z,10.00
2022-11-08T16:08:23.776Z,9.90
2022-11-08T16:10:58.670Z,9.70
2022-11-08T16:13:29.577Z,9.80
2022-11-08T16:15:57.856Z,9.80
2022-11-08T16:18:24.797Z,9.70
2022-11-08T16:20:51.672Z,9.50
2022-11-08T16:23:18.553Z,9.40
2022-11-08T16:25:45.254Z,9.50
2022-11-08T16:28:27.146Z,9.40
2022-11-08T16:30:53.859Z,9.50
2022-11-08T16:33:26.166Z,9.30
2022-11-08T16:35:58.173Z,9.30
2022-11-08T16:38:29.089Z,9.50
2022-11-08T16:40:56.610Z,8.90
2022-11-08T16:43:23.429Z,8.80
2022-11-08T16:46:04.861Z,8.50
2022-11-08T16:48:33.269Z,8.30
2022-11-08T16:51:05.039Z,8.30
2022-11-08T16:53:34.912Z,8.30
2022-11-08T16:56:01.650Z,8.50
2022-11-08T16:58:28.353Z,8.40
2022-11-08T17:00:56.363Z,8.50
2022-11-08T17:03:25.185Z,8.50
2022-11-08T17:05:53.784Z,8.30
2022-11-08T17:08:21.066Z,8.40
2022-11-08T17:10:49.253Z,8.30
2022-11-08T17:13:17.599Z,8.30
2022-11-08T17:15:44.860Z,8.30
2022-11-08T17:18:14.105Z,8.00
2022-11-08T17:20:41.367Z,8.10
2022-11-08T17:23:09.060Z,8.10
2022-11-08T17:25:37.613Z,8.00
2022-11-08T17:28:04.918Z,7.90
2022-11-08T17:30:32.214Z,8.00
2022-11-08T17:32:59.024Z,7.80
2022-11-08T17:35:25.889Z,7.70
2022-11-08T17:37:53.821Z,7.70
2022-11-08T17:40:20.761Z,7.70
2022-11-08T17:42:47.521Z,7.70
2022-11-08T17:45:14.274Z,7.80
2022-11-08T17:47:40.937Z,7.80
2022-11-08T17:50:09.946Z,7.70
2022-11-08T17:52:36.812Z,7.80
2022-11-08T17:55:04.427Z,7.80
2022-11-08T17:57:31.199Z,7.90
2022-11-08T17:59:58.338Z,8.20
2022-11-08T18:02:27.405Z,7.80
2022-11-08T18:04:57.155Z,9.50
2022-11-08T18:07:24.673Z,7.70
2022-11-08T18:09:51.662Z,7.90
2022-11-08T18:12:18.380Z,8.00
2022-11-08T18:14:45.032Z,8.00
2022-11-08T18:17:11.742Z,7.70
2022-11-08T18:19:38.490Z,8.40
2022-11-08T18:22:05.189Z,7.80
2022-11-08T18:24:32.077Z,7.70
2022-11-08T18:26:59.110Z,7.60
2022-11-08T18:29:25.813Z,7.80
2022-11-08T18:31:52.490Z,7.70
2022-11-08T18:34:19.602Z,7.90
2022-11-08T18:36:48.853Z,7.90
2022-11-08T18:39:19.569Z,7.90
2022-11-08T18:41:46.680Z,7.90
2022-11-08T18:44:13.565Z,7.80
2022-11-08T18:46:43.259Z,7.60
2022-11-08T18:49:10.628Z,7.50
2022-11-08T18:51:39.402Z,7.50
2022-11-08T18:54:06.198Z,7.60
2022-11-08T18:56:32.952Z,7.30
2022-11-08T18:58:59.712Z,7.60
2022-11-08T19:01:26.486Z,7.60
2022-11-08T19:03:53.207Z,7.50
2022-11-08T19:06:20.035Z,7.50
2022-11-08T19:08:46.870Z,7.40
2022-11-08T19:11:15.246Z,7.70
2022-11-08T19:13:42.127Z,7.60
2022-11-08T19:16:13.471Z,7.50
2022-11-08T19:18:40.897Z,7.50
2022-11-08T19:21:18.359Z,7.70
2022-11-08T19:23:45.999Z,7.60
2022-11-08T19:26:22.015Z,7.50
2022-11-08T19:28:49.671Z,7.80
2022-11-08T19:31:22.353Z,7.90
2022-11-08T19:33:52.067Z,7.90
2022-11-08T19:36:21.653Z,7.60
2022-11-08T19:38:48.649Z,7.70
2022-11-08T19:41:18.928Z,7.80
2022-11-08T19:43:46.340Z,7.60
2022-11-08T19:46:20.943Z,7.60
2022-11-08T19:48:49.357Z,7.70
2022-11-08T19:51:18.927Z,7.40
2022-11-08T19:53:45.967Z,7.60
2022-11-08T19:56:16.214Z,7.60
2022-11-08T19:58:43.815Z,7.60
2022-11-08T20:01:25.501Z,7.50
2022-11-08T20:03:52.225Z,7.50
2022-11-08T20:06:20.390Z,7.40
2022-11-08T20:08:48.716Z,7.50
2022-11-08T20:11:18.457Z,7.40
2022-11-08T20:13:45.212Z,7.40
2022-11-08T20:16:18.034Z,7.10
2022-11-08T20:18:45.418Z,7.20
2022-11-08T20:21:14.066Z,7.20
2022-11-08T20:23:44.483Z,7.70
2022-11-08T20:26:23.428Z,7.30
2022-11-08T20:28:56.378Z,7.40
2022-11-08T20:31:23.980Z,7.40
2022-11-08T20:33:53.131Z,7.30
2022-11-08T20:36:22.575Z,7.20
2022-11-08T20:38:49.862Z,7.00
2022-11-08T20:41:17.849Z,7.10
2022-11-08T20:43:46.548Z,6.90
2022-11-08T20:46:17.108Z,7.10
2022-11-08T20:48:44.469Z,6.90
2022-11-08T20:51:14.053Z,6.80
2022-11-08T20:53:41.513Z,6.80
2022-11-08T20:56:17.614Z,6.80
2022-11-08T20:58:45.796Z,6.90
2022-11-08T21:01:14.891Z,6.90
2022-11-08T21:03:42.933Z,7.00
2022-11-08T21:06:11.793Z,7.00
2022-11-08T21:11:25.736Z,6.80
2022-11-08T21:13:52.533Z,7.00
2022-11-08T21:16:29.810Z,7.00
2022-11-08T21:18:58.399Z,7.00
2022-11-08T21:21:26.179Z,7.20
2022-11-08T21:23:54.336Z,7.30
2022-11-08T21:26:21.248Z,7.40
2022-11-08T21:28:48.453Z,7.30
2022-11-08T21:31:15.841Z,7.30
2022-11-08T21:33:43.161Z,7.40
2022-11-08T21:36:10.421Z,7.40
2022-11-08T21:38:38.581Z,7.30
2022-11-08T21:41:07.141Z,7.20
2022-11-08T21:43:45.810Z,7.40
2022-11-08T21:46:26.305Z,7.40
2022-11-08T21:48:58.101Z,7.40
2022-11-08T21:51:26.093Z,7.10
2022-11-08T21:53:55.592Z,7.30
2022-11-08T21:56:24.828Z,7.30
2022-11-08T21:58:52.010Z,7.20
2022-11-08T22:01:19.497Z,7.40
2022-11-08T22:03:46.748Z,7.40
2022-11-08T22:06:13.751Z,7.40
2022-11-08T22:08:40.394Z,7.40
2022-11-08T22:11:07.069Z,7.40
2022-11-08T22:13:34.049Z,7.30
2022-11-08T22:16:00.933Z,7.40
2022-11-08T22:18:50.190Z,7.40
2022-11-08T22:21:49.732Z,7.40
2022-11-08T22:24:20.311Z,7.30
2022-11-08T22:26:48.589Z,7.30
2022-11-08T22:29:16.038Z,7.40
2022-11-08T22:31:43.311Z,7.60
2022-11-08T22:34:10.601Z,7.70
2022-11-08T22:36:44.037Z,7.60
2022-11-08T22:39:16.670Z,7.80
2022-11-08T22:41:44.468Z,7.90
2022-11-08T22:44:12.978Z,7.90
2022-11-08T22:46:41.499Z,7.90
2022-11-08T22:49:08.455Z,7.80
2022-11-08T22:51:35.462Z,7.80
2022-11-08T22:54:02.390Z,7.70
2022-11-08T22:56:29.046Z,7.70
2022-11-08T22:58:55.730Z,7.80
2022-11-08T23:01:22.400Z,7.80
2022-11-08T23:03:49.088Z,7.70
2022-11-08T23:06:16.144Z,7.60
2022-11-08T23:08:43.295Z,7.80
2022-11-08T23:11:28.711Z,7.60
2022-11-08T23:14:14.288Z,7.40
2022-11-08T23:16:43.403Z,7.40
2022-11-08T23:19:30.950Z,7.60
2022-11-08T23:22:16.490Z,7.70
2022-11-08T23:24:43.556Z,7.80
2022-11-08T23:27:30.692Z,7.90
2022-11-08T23:30:16.190Z,7.90
2022-11-08T23:32:48.033Z,8.00
2022-11-08T23:35:16.134Z,7.90
2022-11-08T23:37:43.178Z,7.60
2022-11-08T23:40:30.586Z,7.80
2022-11-08T23:43:30.273Z,7.80
2022-11-08T23:45:57.818Z,7.90
2022-11-08T23:48:24.708Z,8.00
2022-11-08T23:50:54.575Z,8.00
2022-11-08T23:53:25.119Z,8.10
2022-11-08T23:55:53.550Z,8.10
2022-11-08T23:58:20.811Z,8.10
